Terminal Aerodrome Forecast
Issued by NWS Albany, NY

Home | Current Version | Previous Version | Text Only | Print | Product List | Glossary On
Versions: 1 2 3 4 5 6 7 8 9 10 11 12 13 14 15 16 17 18 19 20
000
FTUS41 KALY 312300
TAFALB
TAF
KALB 312324Z 0100/0124 VRB04KT P6SM FEW050 SCT080
     FM010800 16003KT 6SM BR VCFG SCT008 BKN250
     FM011200 17006KT P6SM SCT040
     FM011600 17010KT P6SM BKN060=

USA.gov is the U.S. government's official web portal to all federal, state and local government web resources and services.